Time;durP1;ratioP1;P1;durP2;ratioP2;P2;SDS_P1;SDS_P2;PMS_P1;PMS_P2;Temp;Humidity;BMP_temperature;BMP_pressure;BME280_temperature;BME280_humidity;BME280_pressure;Samples;Min_cycle;Max_cycle;Signal;HPM_P1;HPM_P2
2023/04/23 00:01:07;;;;;;;3.67;3.10;;;;;;;10.34;89.24;64025.63;5053131;28;20573;-60
2023/04/23 00:03:33;;;;;;;3.90;3.20;;;;;;;10.21;90.88;64013.91;5052896;28;20263;-57
2023/04/23 00:06:00;;;;;;;5.17;3.40;;;;;;;10.07;90.94;64001.09;5052882;28;20209;-57
2023/04/23 00:08:26;;;;;;;4.33;2.77;;;;;;;9.97;92.67;63990.69;5052896;28;20209;-60
2023/04/23 00:10:51;;;;;;;4.13;2.83;;;;;;;9.97;93.04;63990.69;5052862;28;20316;-60
2023/04/23 00:13:17;;;;;;;4.60;3.20;;;;;;;9.81;93.99;63972.66;5052790;28;20210;-59
2023/04/23 00:15:43;;;;;;;3.93;2.70;;;;;;;9.92;94.41;63985.22;5053063;28;20266;-59
2023/04/23 00:18:08;;;;;;;3.57;3.13;;;;;;;9.96;95.34;63986.53;5052701;28;20780;-59
2023/04/23 00:20:34;;;;;;;4.53;3.60;;;;;;;10.01;96.20;63992.56;5052756;28;20193;-59
2023/04/23 00:23:00;;;;;;;5.37;3.33;;;;;;;10.04;96.71;63997.78;5052843;28;20614;-61
2023/04/23 00:25:26;;;;;;;6.93;3.00;;;;;;;10.09;96.99;64003.28;5052485;28;20217;-59
2023/04/23 00:27:51;;;;;;;4.77;3.03;;;;;;;10.20;95.86;64009.75;5052558;28;20710;-59
2023/04/23 00:30:17;;;;;;;3.73;2.93;;;;;;;10.38;94.17;64031.97;5052669;28;20185;-63
2023/04/23 00:32:43;;;;;;;4.33;3.37;;;;;;;10.60;91.21;64056.59;5052562;28;20267;-59
2023/04/23 00:35:09;;;;;;;5.27;3.37;;;;;;;10.35;92.88;64028.69;5052701;28;20281;-59
2023/04/23 00:37:35;;;;;;;5.37;3.33;;;;;;;10.39;91.89;64030.53;5052408;28;20655;-59
2023/04/23 00:40:01;;;;;;;4.03;2.90;;;;;;;10.44;92.18;64038.53;5034782;28;20198;-60
2023/04/23 00:42:27;;;;;;;3.70;2.80;;;;;;;10.45;90.70;64039.63;5052279;28;20190;-58
2023/04/23 00:44:53;;;;;;;3.50;3.13;;;;;;;10.42;91.05;64036.91;5052499;28;20300;-60
2023/04/23 00:47:19;;;;;;;6.00;3.43;;;;;;;10.23;90.72;64018.06;5034610;28;20645;-57
2023/04/23 00:49:45;;;;;;;3.63;2.73;;;;;;;10.10;92.96;64004.94;5034767;28;20271;-59
2023/04/23 00:52:11;;;;;;;6.10;3.03;;;;;;;10.00;91.63;63993.97;5052169;28;20259;-58
2023/04/23 00:54:36;;;;;;;4.03;3.27;;;;;;;9.98;95.09;63991.78;5051960;28;20691;-59
2023/04/23 00:57:02;;;;;;;7.70;3.43;;;;;;;10.10;93.37;64004.38;5052203;28;20306;-58
2023/04/23 00:59:29;;;;;;;5.97;3.20;;;;;;;10.18;93.25;64012.59;5034384;28;20764;-57
2023/04/23 01:01:55;;;;;;;3.63;2.83;;;;;;;10.01;93.82;63997.59;5052159;28;20195;-59
2023/04/23 01:04:23;;;;;;;6.13;4.13;;;;;;;10.04;93.67;63998.34;5051837;28;20206;-59
2023/04/23 01:06:49;;;;;;;3.00;2.70;;;;;;;10.09;92.57;64003.28;5052027;28;20309;-59
2023/04/23 01:09:16;;;;;;;4.07;3.13;;;;;;;10.11;93.86;64005.47;5051933;28;20257;-58
2023/04/23 01:11:43;;;;;;;7.30;3.60;;;;;;;10.12;93.55;64009.09;5051849;28;20277;-58
2023/04/23 01:14:09;;;;;;;3.27;2.93;;;;;;;10.17;93.90;64011.50;5051844;28;20201;-61
2023/04/23 01:16:37;;;;;;;5.97;2.63;;;;;;;10.24;91.90;64019.16;5034082;28;20221;-61
2023/04/23 01:19:05;;;;;;;4.33;3.23;;;;;;;10.30;91.96;64025.72;5051986;28;20276;-58
2023/04/23 01:21:33;;;;;;;5.57;3.23;;;;;;;10.35;90.07;64031.19;5034082;28;20212;-57
2023/04/23 01:23:58;;;;;;;6.33;3.63;;;;;;;10.22;89.95;64017.50;5052013;28;20240;-57
2023/04/23 01:26:23;;;;;;;7.97;3.30;;;;;;;10.09;89.94;64001.31;5051864;28;20612;-57
2023/04/23 01:28:50;;;;;;;5.03;2.83;;;;;;;10.08;90.20;63999.66;5051695;28;20206;-60
2023/04/23 01:31:16;;;;;;;7.00;3.83;;;;;;;9.98;91.21;63991.78;5051814;28;20615;-59
2023/04/23 01:33:43;;;;;;;5.40;3.47;;;;;;;10.11;89.18;64002.97;5051552;28;20213;-57
2023/04/23 01:36:09;;;;;;;4.20;3.40;;;;;;;9.84;89.67;63976.47;5051806;28;20271;-57
2023/04/23 01:38:37;;;;;;;3.70;3.17;;;;;;;9.61;91.43;63951.31;5050915;28;20751;-58
2023/04/23 01:41:03;;;;;;;4.77;3.17;;;;;;;9.49;91.92;63932.63;5051836;28;20340;-57
2023/04/23 01:43:30;;;;;;;4.83;3.27;;;;;;;9.24;92.67;63911.41;5051727;28;20284;-59
2023/04/23 01:45:57;;;;;;;5.97;3.43;;;;;;;9.16;94.77;63902.13;5051705;28;20197;-58
2023/04/23 01:48:23;;;;;;;5.13;3.40;;;;;;;9.22;94.24;63908.69;5051264;28;20209;-57
2023/04/23 01:50:50;;;;;;;3.63;2.83;;;;;;;9.13;94.49;63901.91;5051665;28;20200;-58
2023/04/23 01:53:15;;;;;;;3.80;3.37;;;;;;;9.01;94.70;63883.75;5051379;28;20213;-57
2023/04/23 01:55:44;;;;;;;5.53;3.63;;;;;;;9.07;95.86;63887.81;5051222;28;20213;-57
2023/04/23 01:58:09;;;;;;;3.73;3.33;;;;;;;9.20;94.53;63903.97;5051282;28;20209;-57
2023/04/23 02:00:35;;;;;;;7.23;3.40;;;;;;;9.20;95.73;63907.03;5051100;28;20211;-60
2023/04/23 02:03:01;;;;;;;6.23;3.37;;;;;;;9.14;95.29;63899.94;5051246;28;20208;-60
2023/04/23 02:05:28;;;;;;;8.00;3.50;;;;;;;9.11;94.86;63897.19;5051421;28;20198;-58
2023/04/23 02:07:53;;;;;;;4.50;3.57;;;;;;;9.06;95.58;63891.19;5051023;28;20352;-59
2023/04/23 02:10:19;;;;;;;5.30;3.80;;;;;;;9.01;96.26;63886.28;5051300;28;20224;-59
2023/04/23 02:12:45;;;;;;;4.07;3.40;;;;;;;8.97;96.64;63881.34;5051015;28;20182;-58
2023/04/23 02:15:11;;;;;;;4.70;3.90;;;;;;;8.99;96.55;63881.03;5050964;28;20307;-62
2023/04/23 02:17:38;;;;;;;7.97;3.80;;;;;;;8.94;96.68;63878.63;5050926;28;20227;-60
2023/04/23 02:20:06;;;;;;;5.90;3.77;;;;;;;8.85;97.81;63870.75;5033651;28;20201;-59
2023/04/23 02:22:31;;;;;;;4.47;3.60;;;;;;;8.90;98.14;63871.19;5050847;28;20220;-56
2023/04/23 02:24:57;;;;;;;7.13;3.77;;;;;;;9.00;98.59;63885.19;5050795;28;20241;-56
2023/04/23 02:27:22;;;;;;;3.97;3.53;;;;;;;8.92;97.72;63875.91;5051010;28;20247;-57
2023/04/23 02:29:48;;;;;;;4.00;3.33;;;;;;;8.95;97.66;63876.66;5049539;28;20592;-58
2023/04/23 02:32:14;;;;;;;5.90;3.57;;;;;;;8.91;97.70;63874.78;5050857;28;20185;-60
2023/04/23 02:34:40;;;;;;;4.37;3.40;;;;;;;9.00;97.98;63882.13;5050753;28;20295;-60
2023/04/23 02:37:05;;;;;;;7.40;3.77;;;;;;;8.84;98.40;63867.72;5032870;28;20231;-58
2023/04/23 02:39:31;;;;;;;5.60;3.73;;;;;;;8.94;98.51;63878.63;5050567;28;20764;-59
2023/04/23 02:41:57;;;;;;;5.67;3.40;;;;;;;8.92;100.00;63873.38;5050884;28;20203;-59
2023/04/23 02:44:23;;;;;;;4.73;3.23;;;;;;;9.08;100.00;63893.38;5050577;28;20205;-58
2023/04/23 02:46:49;;;;;;;6.03;3.77;;;;;;;9.04;98.75;63886.50;5050810;28;20276;-57
2023/04/23 02:49:14;;;;;;;7.97;4.37;;;;;;;9.22;97.40;63908.69;5050671;28;20288;-59
2023/04/23 02:51:40;;;;;;;4.67;3.70;;;;;;;9.26;97.09;63913.06;5054225;28;20193;-59
2023/04/23 02:54:05;;;;;;;4.77;3.40;;;;;;;9.23;97.00;63909.78;5054067;28;20689;-60
2023/04/23 02:56:31;;;;;;;4.23;3.77;;;;;;;9.18;96.49;63904.31;5054282;28;20220;-59
2023/04/23 02:58:56;;;;;;;6.03;3.47;;;;;;;9.29;96.26;63914.34;5053819;28;20698;-59
2023/04/23 03:01:22;;;;;;;4.73;3.90;;;;;;;9.19;97.87;63902.91;5054104;28;20221;-59
2023/04/23 03:03:47;;;;;;;4.80;3.80;;;;;;;9.22;96.68;63908.69;5036107;28;20212;-57
2023/04/23 03:06:13;;;;;;;7.40;4.17;;;;;;;9.21;97.93;63905.63;5054344;28;20201;-57
2023/04/23 03:08:39;;;;;;;5.00;3.60;;;;;;;9.25;95.44;63911.97;5053847;28;20197;-60
2023/04/23 03:11:05;;;;;;;4.20;3.80;;;;;;;9.24;95.80;63910.88;5054278;28;20193;-61
2023/04/23 03:13:30;;;;;;;5.83;3.80;;;;;;;9.40;93.80;63925.84;5035987;28;20288;-60
2023/04/23 03:15:56;;;;;;;8.77;3.87;;;;;;;9.45;92.28;63933.28;5054003;28;20304;-59
2023/04/23 03:18:22;;;;;;;6.50;3.50;;;;;;;9.05;92.95;63887.59;5053594;28;20217;-60
2023/04/23 03:20:47;;;;;;;4.87;4.37;;;;;;;9.05;94.37;63885.63;5053777;28;20220;-61
2023/04/23 03:23:13;;;;;;;4.77;4.07;;;;;;;9.08;95.47;63893.38;5053731;28;20657;-57
2023/04/23 03:25:38;;;;;;;5.13;4.00;;;;;;;8.80;94.94;63860.28;5053657;28;20197;-60
2023/04/23 03:28:04;;;;;;;4.43;3.97;;;;;;;8.61;97.14;63839.50;5053579;28;20223;-60
2023/04/23 03:30:29;;;;;;;6.00;4.53;;;;;;;8.53;97.35;63831.31;5053760;28;20688;-61
2023/04/23 03:32:56;;;;;;;6.67;4.30;;;;;;;8.61;98.00;63842.56;5053456;28;20205;-59
2023/04/23 03:35:22;;;;;;;5.60;3.90;;;;;;;8.79;96.72;63859.16;5053705;28;20194;-61
2023/04/23 03:37:48;;;;;;;5.07;4.53;;;;;;;8.73;98.29;63852.63;5053340;28;20664;-61
2023/04/23 03:40:13;;;;;;;5.40;4.53;;;;;;;8.80;97.58;63862.78;5053524;28;20200;-60
2023/04/23 03:42:39;;;;;;;4.37;3.97;;;;;;;8.86;95.41;63869.34;5053208;28;20189;-57
2023/04/23 03:45:05;;;;;;;4.97;4.10;;;;;;;8.71;96.06;63847.91;5053340;28;20194;-57
2023/04/23 03:47:31;;;;;;;6.50;4.10;;;;;;;8.71;97.15;63850.44;5053482;28;20311;-59
2023/04/23 03:49:56;;;;;;;5.63;4.87;;;;;;;8.71;98.19;63852.94;5053292;28;20682;-58
2023/04/23 03:52:21;;;;;;;4.67;4.27;;;;;;;8.81;97.87;63864.41;5053164;28;20212;-59
2023/04/23 03:54:47;;;;;;;5.87;4.33;;;;;;;8.82;97.73;63863.00;5053326;28;20229;-58
2023/04/23 03:57:13;;;;;;;6.50;4.30;;;;;;;8.79;94.81;63862.22;5053035;28;20296;-58
2023/04/23 03:59:38;;;;;;;5.20;4.50;;;;;;;8.70;96.30;63851.84;5053197;28;20221;-57
2023/04/23 04:02:04;;;;;;;4.60;3.83;;;;;;;8.46;97.20;63826.19;5052726;28;20579;-60
2023/04/23 04:04:30;;;;;;;7.57;4.47;;;;;;;8.43;98.71;63823.47;5052919;28;20201;-61
2023/04/23 04:06:56;;;;;;;5.40;4.57;;;;;;;8.60;97.46;63840.94;5053106;28;20272;-61
2023/04/23 04:09:22;;;;;;;6.27;4.37;;;;;;;8.55;97.50;63835.47;5052817;28;20212;-57
2023/04/23 04:11:47;;;;;;;6.17;4.57;;;;;;;8.38;97.84;63812.44;5034932;28;20326;-57
2023/04/23 04:14:13;;;;;;;6.90;4.70;;;;;;;8.34;99.72;63811.09;5052767;28;20683;-56
2023/04/23 04:16:39;;;;;;;5.87;5.00;;;;;;;8.48;99.77;63830.34;5053133;28;20209;-56
2023/04/23 04:19:05;;;;;;;6.90;4.70;;;;;;;8.46;99.51;63824.22;5052689;28;20801;-56
2023/04/23 04:21:32;;;;;;;6.43;4.00;;;;;;;8.36;100.00;63815.81;5053064;28;20193;-56
2023/04/23 04:24:00;;;;;;;6.60;4.80;;;;;;;8.36;100.00;63815.28;5052778;28;20206;-56
2023/04/23 04:26:26;;;;;;;9.33;4.80;;;;;;;8.32;100.00;63808.41;5053030;28;20664;-56
2023/04/23 04:28:52;;;;;;;6.17;4.70;;;;;;;8.35;100.00;63812.22;5052752;28;20212;-59
2023/04/23 04:31:19;;;;;;;6.23;4.97;;;;;;;8.39;100.00;63819.09;5052637;28;20189;-57
2023/04/23 04:33:45;;;;;;;6.40;5.10;;;;;;;8.52;100.00;63829.69;5052687;28;20208;-58
2023/04/23 04:36:12;;;;;;;6.27;4.93;;;;;;;8.69;100.00;63851.31;5052912;28;20300;-58
2023/04/23 04:38:38;;;;;;;7.47;4.53;;;;;;;8.99;98.83;63881.03;5052330;28;20229;-58
2023/04/23 04:41:04;;;;;;;6.43;4.70;;;;;;;9.01;98.99;63886.28;5052827;28;20292;-57
2023/04/23 04:43:31;;;;;;;5.30;4.80;;;;;;;9.00;98.25;63882.69;5052383;28;20193;-60
2023/04/23 04:45:57;;;;;;;6.10;5.37;;;;;;;8.85;99.05;63863.22;5052634;28;20194;-59
2023/04/23 04:48:23;;;;;;;5.17;4.27;;;;;;;8.84;100.00;63864.63;5034721;28;20209;-59
2023/04/23 04:50:49;;;;;;;5.73;4.50;;;;;;;8.82;100.00;63863.00;5052220;28;20271;-57
2023/04/23 04:53:15;;;;;;;6.33;4.60;;;;;;;8.92;100.00;63873.38;5052288;28;20206;-59
2023/04/23 04:55:40;;;;;;;6.40;4.50;;;;;;;9.18;99.32;63902.34;5052185;28;20252;-58
2023/04/23 04:58:06;;;;;;;8.40;5.23;;;;;;;9.19;98.27;63900.91;5052117;28;20604;-58
2023/04/23 05:00:31;;;;;;;5.63;4.03;;;;;;;9.38;97.37;63926.16;5052514;28;20185;-58
2023/04/23 05:02:58;;;;;;;7.57;4.87;;;;;;;9.33;98.26;63918.19;5052040;28;20296;-56
2023/04/23 05:05:24;;;;;;;5.53;4.40;;;;;;;9.36;98.73;63923.97;5052145;28;20201;-56
2023/04/23 05:07:50;;;;;;;7.30;4.67;;;;;;;9.48;100.00;63937.09;5051943;28;20193;-57
2023/04/23 05:10:16;;;;;;;8.03;4.87;;;;;;;9.40;99.71;63925.28;5052115;28;20197;-62
2023/04/23 05:12:42;;;;;;;6.60;4.37;;;;;;;9.65;98.17;63953.19;5051054;28;20273;-57
2023/04/23 05:15:09;;;;;;;5.30;4.80;;;;;;;9.84;96.78;63973.41;5052083;28;20205;-57
2023/04/23 05:17:36;;;;;;;11.00;5.60;;;;;;;9.78;98.38;63969.34;5051828;28;20221;-57
2023/04/23 05:20:02;;;;;;;6.30;4.50;;;;;;;9.89;98.39;63981.94;5051612;28;20205;-58
2023/04/23 05:22:28;;;;;;;9.27;5.53;;;;;;;9.59;98.71;63946.63;5051817;28;20229;-60
2023/04/23 05:24:53;;;;;;;8.37;5.03;;;;;;;9.64;99.84;63952.09;5051666;28;20300;-58
2023/04/23 05:27:18;;;;;;;7.73;5.17;;;;;;;9.74;98.07;63965.53;5033937;28;20208;-57
2023/04/23 05:29:44;;;;;;;8.67;4.97;;;;;;;9.81;98.36;63970.69;5051665;28;20691;-61
2023/04/23 05:32:09;;;;;;;6.37;5.50;;;;;;;9.98;98.34;63991.78;5051613;28;20200;-63
2023/04/23 05:34:35;;;;;;;9.03;5.00;;;;;;;9.96;98.35;63989.03;5051525;28;20248;-59
2023/04/23 05:37:01;;;;;;;7.43;4.60;;;;;;;10.11;97.80;64002.97;5051377;28;20212;-58
2023/04/23 05:39:26;;;;;;;8.43;4.70;;;;;;;10.20;96.13;64014.78;5051304;28;20257;-58
2023/04/23 05:41:52;;;;;;;8.90;4.43;;;;;;;10.30;96.10;64026.28;5051419;28;20276;-58
2023/04/23 05:44:17;;;;;;;9.03;5.10;;;;;;;10.42;97.07;64038.88;5051425;28;20679;-59
2023/04/23 05:46:43;;;;;;;7.10;4.83;;;;;;;10.53;96.21;64050.88;5051263;28;20189;-57
2023/04/23 05:49:08;;;;;;;8.47;5.43;;;;;;;10.52;96.46;64047.28;5051275;28;20213;-56
2023/04/23 05:51:33;;;;;;;9.17;6.07;;;;;;;10.46;95.50;64040.72;5051831;28;20251;-58
2023/04/23 05:53:59;;;;;;;7.80;5.00;;;;;;;10.52;95.77;64049.81;5051201;28;20202;-56
2023/04/23 05:56:24;;;;;;;9.80;5.00;;;;;;;10.65;95.72;64062.06;5033454;28;20225;-58
2023/04/23 05:58:50;;;;;;;8.17;5.53;;;;;;;10.70;97.46;64070.06;5051176;28;20212;-57
2023/04/23 06:01:15;;;;;;;9.50;5.43;;;;;;;10.93;93.23;64089.63;5051221;28;20200;-58
2023/04/23 06:03:44;;;;;;;7.53;4.90;;;;;;;10.83;94.07;64084.28;5050942;28;20209;-57
2023/04/23 06:06:12;;;;;;;7.70;5.23;;;;;;;10.81;94.36;64082.09;5051094;28;20209;-56
2023/04/23 06:08:38;;;;;;;7.03;4.97;;;;;;;10.69;93.15;64068.41;5050989;28;20197;-55
2023/04/23 06:11:04;;;;;;;7.67;5.10;;;;;;;10.65;94.21;64062.06;5051492;28;20200;-57
2023/04/23 06:13:30;;;;;;;8.70;5.37;;;;;;;10.65;94.64;64064.03;5050947;28;20205;-57
2023/04/23 06:15:56;;;;;;;8.13;5.07;;;;;;;10.88;92.68;64087.25;5051288;28;20711;-57
2023/04/23 06:18:21;;;;;;;7.27;5.00;;;;;;;11.03;91.75;64103.09;5032982;28;20284;-58
2023/04/23 06:20:50;;;;;;;9.10;5.10;;;;;;;11.03;92.80;64105.63;5050939;28;20755;-58
2023/04/23 06:23:16;;;;;;;10.27;5.73;;;;;;;11.10;91.78;64113.31;5050700;28;20244;-58
2023/04/23 06:25:42;;;;;;;11.03;5.93;;;;;;;11.11;92.37;64114.38;5050869;28;20651;-56
2023/04/23 06:28:07;;;;;;;9.73;6.00;;;;;;;11.20;93.87;64121.19;5050769;28;20209;-57
2023/04/23 06:30:32;;;;;;;10.57;6.13;;;;;;;11.20;94.03;64124.25;5051059;28;20204;-57
2023/04/23 06:32:58;;;;;;;8.10;5.93;;;;;;;11.35;92.95;64138.16;5050766;28;20206;-59
2023/04/23 06:35:23;;;;;;;7.73;5.20;;;;;;;11.51;91.76;64155.69;5050908;28;20200;-58
2023/04/23 06:37:49;;;;;;;8.07;5.53;;;;;;;11.51;90.51;64158.22;5050805;28;20216;-60
2023/04/23 06:40:15;;;;;;;7.90;6.23;;;;;;;11.44;90.48;64150.56;5050908;28;20190;-58
2023/04/23 06:42:40;;;;;;;7.23;6.00;;;;;;;11.36;92.01;64136.19;5050438;28;20657;-58
2023/04/23 06:45:14;;;;;;;8.50;6.13;;;;;;;11.45;93.02;64151.63;5050841;28;20256;-58
2023/04/23 06:47:40;;;;;;;11.57;6.37;;;;;;;11.59;92.31;64164.47;5050696;28;20205;-58
2023/04/23 06:50:07;;;;;;;12.70;6.67;;;;;;;11.70;94.24;64174.00;5050479;28;20196;-59
2023/04/23 06:52:32;;;;;;;9.70;7.67;;;;;;;11.76;93.03;64185.06;5050528;28;20195;-61
2023/04/23 06:54:58;;;;;;;13.97;8.30;;;;;;;11.84;92.86;64191.31;5050651;28;20272;-61
2023/04/23 06:57:23;;;;;;;9.57;5.47;;;;;;;12.08;92.32;64219.63;5050351;28;20710;-57
2023/04/23 06:59:50;;;;;;;11.00;5.90;;;;;;;12.27;90.12;64240.44;5050547;28;20585;-58
2023/04/23 07:02:22;;;;;;;10.10;5.60;;;;;;;12.32;90.86;64245.94;5050602;28;20189;-57
2023/04/23 07:04:48;;;;;;;8.93;6.53;;;;;;;12.26;91.48;64236.81;5050306;28;20213;-57
2023/04/23 07:07:13;;;;;;;6.97;5.87;;;;;;;12.50;89.76;64266.19;5050193;28;20200;-59
2023/04/23 07:09:39;;;;;;;6.67;5.10;;;;;;;12.38;88.30;64252.50;5050088;28;20225;-59
2023/04/23 07:12:04;;;;;;;7.47;5.80;;;;;;;12.25;88.62;64236.28;5050441;28;20192;-59
2023/04/23 07:14:31;;;;;;;8.47;5.67;;;;;;;12.33;90.11;64247.56;5049588;28;20201;-58
2023/04/23 07:16:58;;;;;;;8.93;6.43;;;;;;;12.41;90.12;64253.25;5050039;28;20695;-57
2023/04/23 07:19:23;;;;;;;8.70;6.23;;;;;;;12.55;88.80;64271.16;5049960;28;20284;-58
2023/04/23 07:21:49;;;;;;;9.37;6.20;;;;;;;12.78;87.56;64290.78;5050201;28;20276;-58
2023/04/23 07:24:15;;;;;;;6.70;5.93;;;;;;;12.74;87.72;64289.47;5050030;28;20201;-58
2023/04/23 07:26:41;;;;;;;11.70;6.87;;;;;;;12.84;87.13;64300.44;5050002;28;20198;-57
2023/04/23 07:29:09;;;;;;;8.77;6.90;;;;;;;12.85;86.30;64300.97;5050010;28;20198;-58
2023/04/23 07:31:35;;;;;;;10.90;5.67;;;;;;;13.18;86.74;64335.22;5032178;28;20201;-58
2023/04/23 07:34:01;;;;;;;9.03;7.67;;;;;;;13.06;86.70;64324.03;5049806;28;20217;-58
2023/04/23 07:36:27;;;;;;;7.90;6.47;;;;;;;13.35;85.52;64353.34;5051649;28;20217;-58
2023/04/23 07:38:53;;;;;;;11.17;7.00;;;;;;;13.23;85.78;64343.25;5053322;28;20639;-61
2023/04/23 07:41:18;;;;;;;10.68;6.38;;;;;;;13.15;83.49;64331.41;5053846;28;20711;-58
2023/04/23 07:43:44;;;;;;;10.00;5.85;;;;;;;13.22;83.19;64342.16;5053264;28;20699;-59
2023/04/23 07:46:09;;;;;;;11.10;8.30;;;;;;;13.39;84.05;64357.72;5035649;28;20212;-61
2023/04/23 07:48:34;;;;;;;10.10;7.70;;;;;;;13.74;82.07;64398.13;5053039;28;20209;-61
2023/04/23 07:51:01;;;;;;;13.75;7.38;;;;;;;13.80;85.18;64407.25;5052980;28;20588;-66
2023/04/23 07:53:30;;;;;;;6.22;5.63;;;;;;;13.86;82.06;64413.84;5052984;28;20271;-60
2023/04/23 07:55:55;;;;;;;11.60;6.80;;;;;;;13.83;82.59;64406.03;5052877;28;20209;-60
2023/04/23 07:58:22;;;;;;;11.48;6.85;;;;;;;13.93;81.41;64417.03;5052827;28;20205;-57
2023/04/23 08:00:48;;;;;;;16.10;7.90;;;;;;;14.17;81.12;64445.34;5053355;28;20231;-58
2023/04/23 08:03:13;;;;;;;9.65;7.57;;;;;;;14.09;81.34;64436.56;5052825;28;20206;-59
2023/04/23 08:05:40;;;;;;;12.88;7.78;;;;;;;14.20;79.83;64451.19;5018816;28;20262;-62
2023/04/23 08:08:06;;;;;;;15.33;9.70;;;;;;;14.10;78.53;64437.66;5052806;28;20240;-58
2023/04/23 08:10:32;;;;;;;12.57;8.35;;;;;;;14.25;78.68;64452.16;5053036;28;20193;-57
2023/04/23 08:12:57;;;;;;;7.73;6.63;;;;;;;14.67;76.98;64502.84;5034707;28;20222;-58
2023/04/23 08:15:23;;;;;;;6.38;5.40;;;;;;;14.72;75.70;64503.28;5052650;28;20186;-58
2023/04/23 08:17:49;;;;;;;8.82;7.28;;;;;;;14.45;76.09;64473.06;5052658;28;20205;-59
2023/04/23 08:20:15;;;;;;;8.40;7.50;;;;;;;14.34;76.29;64464.06;5052776;28;20178;-59
2023/04/23 08:22:40;;;;;;;14.45;9.43;;;;;;;14.44;75.00;64475.06;5052687;28;20677;-60
2023/04/23 08:25:06;;;;;;;8.45;6.82;;;;;;;14.56;77.22;64485.16;5052892;28;20217;-58
2023/04/23 08:27:32;;;;;;;11.33;6.97;;;;;;;14.85;76.23;64520.09;5052343;28;20190;-60
2023/04/23 08:29:57;;;;;;;8.23;6.57;;;;;;;14.89;73.92;64521.41;5052249;28;20359;-59
2023/04/23 08:32:23;;;;;;;11.07;5.75;;;;;;;14.90;72.98;64523.06;5052446;28;20201;-58
2023/04/23 08:34:48;;;;;;;10.20;7.97;;;;;;;14.85;73.25;64520.09;5052188;28;20750;-59
2023/04/23 08:37:14;;;;;;;7.75;6.95;;;;;;;15.34;71.91;64570.88;5034129;28;20213;-59
2023/04/23 08:39:39;;;;;;;11.73;6.50;;;;;;;15.22;72.62;64557.13;5052057;28;20209;-58
2023/04/23 08:42:31;;;;;;;8.68;6.50;;;;;;;15.37;70.14;64576.19;5052128;28;20181;-58
2023/04/23 08:44:57;;;;;;;7.78;5.80;;;;;;;15.55;70.88;64591.47;5052325;28;20209;-59
2023/04/23 08:47:24;;;;;;;8.15;6.00;;;;;;;15.80;70.88;64623.50;5051918;28;20212;-59
2023/04/23 08:49:53;;;;;;;8.80;5.55;;;;;;;16.02;68.91;64647.16;5052226;28;20296;-58
2023/04/23 08:52:22;;;;;;;10.35;6.35;;;;;;;15.77;66.83;64620.19;5052091;28;20182;-57
2023/04/23 08:54:51;;;;;;;7.68;5.60;;;;;;;16.09;67.38;64652.88;5052061;28;20613;-57
2023/04/23 08:57:17;;;;;;;10.65;6.85;;;;;;;16.13;67.88;64659.81;5051797;28;20307;-58
2023/04/23 08:59:43;;;;;;;10.13;6.72;;;;;;;16.31;64.98;64679.63;5051756;28;20245;-57
2023/04/23 09:02:09;;;;;;;11.05;7.00;;;;;;;16.48;65.90;64698.31;5051797;28;20198;-60
2023/04/23 09:04:36;;;;;;;7.85;6.20;;;;;;;16.61;64.11;64715.22;5034038;28;21611;-59
2023/04/23 09:07:03;;;;;;;10.35;5.97;;;;;;;16.74;64.25;64721.34;5051811;28;20189;-57
2023/04/23 09:09:29;;;;;;;6.03;5.43;;;;;;;17.03;65.72;64755.28;5051854;28;20213;-57
2023/04/23 09:11:56;;;;;;;6.20;5.55;;;;;;;17.13;60.25;64766.31;5051816;28;20186;-56
2023/04/23 09:14:26;;;;;;;11.30;5.40;;;;;;;16.84;61.79;64737.44;5051883;28;20220;-61
2023/04/23 09:16:52;;;;;;;7.72;5.35;;;;;;;16.81;61.87;64731.59;5051779;28;20294;-61
2023/04/23 09:19:17;;;;;;;12.10;6.22;;;;;;;17.29;63.07;64783.94;5051747;28;20209;-58
2023/04/23 09:21:46;;;;;;;6.68;5.43;;;;;;;17.84;62.27;64844.56;5051798;28;20189;-58
2023/04/23 09:24:12;;;;;;;8.18;5.60;;;;;;;17.99;57.52;64861.09;5051805;28;20724;-57
2023/04/23 09:26:45;;;;;;;8.88;6.00;;;;;;;18.42;58.10;64910.53;5051539;28;20202;-58
2023/04/23 09:29:22;;;;;;;9.43;5.72;;;;;;;17.90;58.77;64853.72;5051498;28;20717;-59
2023/04/23 09:32:08;;;;;;;7.93;5.22;;;;;;;17.77;58.51;64838.84;5052055;28;20216;-57
2023/04/23 09:34:37;;;;;;;6.13;4.90;;;;;;;18.27;57.83;64893.97;5033697;28;20201;-59
2023/04/23 09:37:05;;;;;;;8.98;6.63;;;;;;;18.72;55.62;64937.97;5051267;28;20217;-59
2023/04/23 09:39:33;;;;;;;6.97;5.03;;;;;;;18.70;57.15;64938.31;5051522;28;20255;-61
2023/04/23 09:42:03;;;;;;;5.95;5.32;;;;;;;18.88;54.12;64960.72;5051460;28;20701;-57
2023/04/23 09:44:31;;;;;;;10.13;5.10;;;;;;;18.55;52.38;64921.75;5051247;28;20202;-58
2023/04/23 09:47:08;;;;;;;8.60;5.15;;;;;;;18.40;52.71;64906.28;5051425;28;20193;-60
2023/04/23 09:49:44;;;;;;;5.18;4.68;;;;;;;18.84;52.14;64954.31;5017202;28;20205;-62
2023/04/23 09:52:10;;;;;;;6.50;4.95;;;;;;;19.32;52.44;65006.19;5051429;28;20197;-62
2023/04/23 09:54:35;;;;;;;8.38;5.28;;;;;;;19.75;53.02;65054.25;5051125;28;20213;-63
2023/04/23 09:57:02;;;;;;;7.65;5.35;;;;;;;19.34;48.89;65005.84;5033454;28;20765;-61
2023/04/23 09:59:29;;;;;;;6.60;5.13;;;;;;;18.92;50.30;64965.69;5050653;28;20213;-59
2023/04/23 10:01:55;;;;;;;6.35;4.78;;;;;;;18.81;49.35;64950.44;5051233;28;20236;-57
2023/04/23 10:04:23;;;;;;;5.93;4.80;;;;;;;18.50;50.95;64919.38;5050989;28;20228;-63
2023/04/23 10:06:55;;;;;;;5.18;4.68;;;;;;;18.38;48.14;64903.56;5050902;28;20197;-57
2023/04/23 10:09:24;;;;;;;5.60;4.35;;;;;;;18.83;48.87;64952.66;5050940;28;20212;-58
2023/04/23 10:11:58;;;;;;;10.32;6.30;;;;;;;18.49;48.23;64918.25;5050876;28;20288;-59
2023/04/23 10:14:26;;;;;;;5.55;4.43;;;;;;;18.57;48.76;64921.41;5051015;28;20214;-59
2023/04/23 10:16:59;;;;;;;14.10;8.57;;;;;;;19.09;47.48;64983.91;5050941;28;20270;-60
2023/04/23 10:19:27;;;;;;;6.13;4.63;;;;;;;19.66;48.21;65044.28;5050816;28;20213;-62
2023/04/23 10:22:00;;;;;;;20.98;15.45;;;;;;;19.90;46.72;65070.78;5050876;28;20185;-61
2023/04/23 10:24:29;;;;;;;7.60;4.78;;;;;;;18.84;48.60;64953.75;5050977;28;20220;-57
2023/04/23 10:26:59;;;;;;;8.88;4.55;;;;;;;18.77;49.96;64949.13;5050831;28;20181;-61
2023/04/23 10:29:32;;;;;;;5.97;4.15;;;;;;;18.99;47.67;64970.31;5050684;28;20209;-61
2023/04/23 10:32:03;;;;;;;8.80;6.22;;;;;;;19.01;46.14;64972.50;5050816;28;20213;-61
2023/04/23 10:34:30;;;;;;;5.72;4.13;;;;;;;19.66;44.49;65043.75;5050387;28;20295;-61
2023/04/23 10:37:00;;;;;;;6.93;4.88;;;;;;;19.99;44.09;65080.19;5050537;28;20205;-62
2023/04/23 10:39:32;;;;;;;7.28;6.57;;;;;;;19.99;43.54;65083.31;5050669;28;20260;-57
2023/04/23 10:41:59;;;;;;;5.63;4.32;;;;;;;19.56;44.62;65033.25;5050620;28;20217;-57
2023/04/23 10:44:41;;;;;;;10.57;7.72;;;;;;;20.12;42.66;65094.00;5050510;28;20667;-57
2023/04/23 10:47:12;;;;;;;5.10;4.50;;;;;;;19.92;44.35;65069.88;5050603;28;20216;-58
2023/04/23 10:49:38;;;;;;;5.63;3.78;;;;;;;20.54;42.26;65140.44;5050562;28;20209;-57
2023/04/23 10:52:08;;;;;;;6.50;4.43;;;;;;;20.46;41.08;65131.59;5050623;28;20713;-57
2023/04/23 10:54:34;;;;;;;5.78;4.28;;;;;;;21.17;40.58;65210.06;5050342;28;20276;-58
2023/04/23 10:57:05;;;;;;;4.88;4.38;;;;;;;21.69;41.64;65267.59;5050296;28;20272;-58
2023/04/23 10:59:33;;;;;;;4.45;3.90;;;;;;;21.09;39.81;65201.22;5050573;28;20217;-57
2023/04/23 11:02:07;;;;;;;3.63;3.30;;;;;;;20.18;39.68;65098.06;5050585;28;20205;-57
2023/04/23 11:04:34;;;;;;;4.65;4.15;;;;;;;21.09;40.78;65201.22;5050414;28;20201;-57
2023/04/23 11:07:07;;;;;;;9.88;4.28;;;;;;;21.59;38.29;65256.00;5050377;28;20198;-57
2023/04/23 11:09:35;;;;;;;5.18;3.63;;;;;;;22.13;39.72;65315.75;5050253;28;20224;-56
2023/04/23 11:12:04;;;;;;;6.00;3.92;;;;;;;22.57;39.20;65361.34;5052774;28;20189;-58
2023/04/23 11:14:36;;;;;;;7.30;3.78;;;;;;;23.13;40.76;65420.25;5053722;28;20205;-59
2023/04/23 11:17:03;;;;;;;7.18;4.20;;;;;;;22.66;39.37;65373.34;5053656;28;20290;-57
2023/04/23 11:19:30;;;;;;;4.72;4.03;;;;;;;22.52;37.41;65358.38;5035556;28;20290;-58
2023/04/23 11:21:58;;;;;;;6.07;4.07;;;;;;;22.74;38.31;65382.75;5053630;28;20181;-59
2023/04/23 11:24:26;;;;;;;5.32;3.63;;;;;;;22.95;37.56;65402.88;5053419;28;20209;-58
2023/04/23 11:26:55;;;;;;;5.95;3.45;;;;;;;23.37;35.87;65451.44;5053838;28;20663;-58
2023/04/23 11:29:22;;;;;;;4.30;3.90;;;;;;;23.16;36.09;65426.16;5053529;28;20205;-57
2023/04/23 11:31:48;;;;;;;4.10;3.70;;;;;;;22.94;34.82;65404.34;5053405;28;20716;-58